createdAt,value
2018-02-10T00:00:38.252Z,45.13
2018-02-10T00:03:05.660Z,46.40
2018-02-10T00:05:33.074Z,45.73
2018-02-10T00:08:00.478Z,46.77
2018-02-10T00:10:28.018Z,45.40
2018-02-10T00:12:55.437Z,41.55
2018-02-10T00:17:56.801Z,44.87
2018-02-10T00:20:24.212Z,51.17
2018-02-10T00:22:51.633Z,42.37
2018-02-10T00:25:19.057Z,46.07
2018-02-10T00:27:46.484Z,45.27
2018-02-10T00:30:14.258Z,43.20
2018-02-10T00:32:41.762Z,47.97
2018-02-10T00:35:09.160Z,43.60
2018-02-10T00:37:36.571Z,44.70
2018-02-10T00:40:03.998Z,45.03
2018-02-10T00:42:31.425Z,48.13
2018-02-10T00:44:58.849Z,49.83
2018-02-10T00:47:26.284Z,45.90
2018-02-10T00:49:53.701Z,48.87
2018-02-10T00:52:21.141Z,48.28
2018-02-10T00:54:49.066Z,49.00
2018-02-10T00:57:16.474Z,47.00
2018-02-10T00:59:43.877Z,44.83
2018-02-10T01:02:11.298Z,45.37
2018-02-10T01:04:38.721Z,46.90
2018-02-10T01:07:06.158Z,43.70
2018-02-10T01:09:33.566Z,46.70
2018-02-10T01:12:01.002Z,46.60
2018-02-10T01:14:28.474Z,44.23
2018-02-10T01:16:55.892Z,46.40
2018-02-10T01:19:23.310Z,48.08
2018-02-10T01:21:50.744Z,47.40
2018-02-10T01:24:18.153Z,44.73
2018-02-10T01:26:45.604Z,46.60
2018-02-10T01:29:13.085Z,44.83
2018-02-10T01:31:40.530Z,44.17
2018-02-10T01:34:07.969Z,47.43
2018-02-10T01:36:35.493Z,47.47
2018-02-10T01:39:02.918Z,49.50
2018-02-10T01:41:30.414Z,45.83
2018-02-10T01:43:57.824Z,45.60
2018-02-10T01:46:25.250Z,43.83
2018-02-10T01:48:52.660Z,44.40
2018-02-10T01:51:20.069Z,43.57
2018-02-10T01:53:47.933Z,41.30
2018-02-10T01:56:15.348Z,50.10
2018-02-10T01:58:42.800Z,48.30
2018-02-10T02:01:10.212Z,50.20
2018-02-10T02:03:37.628Z,47.73
2018-02-10T02:06:05.086Z,46.03
2018-02-10T02:08:32.507Z,47.85
2018-02-10T02:10:59.929Z,44.77
2018-02-10T02:13:27.363Z,46.30
2018-02-10T02:15:54.770Z,48.10
2018-02-10T02:18:22.229Z,44.70
2018-02-10T02:20:49.636Z,43.03
2018-02-10T02:23:17.056Z,44.87
2018-02-10T02:25:44.494Z,44.17
2018-02-10T02:28:11.908Z,44.70
2018-02-10T02:30:39.365Z,44.40
2018-02-10T02:33:06.784Z,42.90
2018-02-10T02:35:34.185Z,45.50
2018-02-10T02:38:01.600Z,43.33
2018-02-10T02:40:29.051Z,47.22
2018-02-10T02:42:56.502Z,46.40
2018-02-10T02:45:23.939Z,48.37
2018-02-10T02:47:51.346Z,46.75
2018-02-10T02:50:18.766Z,46.20
2018-02-10T02:52:46.209Z,42.57
2018-02-10T02:55:13.628Z,40.30
2018-02-10T02:57:41.092Z,40.57
2018-02-10T03:00:08.517Z,41.60
2018-02-10T03:02:35.934Z,43.17
2018-02-10T03:05:03.368Z,45.43
2018-02-10T03:07:30.773Z,41.27
2018-02-10T03:09:58.188Z,46.47
2018-02-10T03:12:25.742Z,46.37
2018-02-10T03:14:53.185Z,46.43
2018-02-10T03:17:20.613Z,41.47
2018-02-10T03:19:48.034Z,45.10
2018-02-10T03:22:15.461Z,44.10
2018-02-10T03:24:42.930Z,41.30
2018-02-10T03:27:10.341Z,44.78
2018-02-10T03:29:37.780Z,40.63
2018-02-10T03:32:05.193Z,40.27
2018-02-10T03:34:32.624Z,47.00
2018-02-10T03:37:00.035Z,41.60
2018-02-10T03:39:27.444Z,41.40
2018-02-10T03:41:54.938Z,44.20
2018-02-10T03:44:22.909Z,40.10
2018-02-10T03:46:50.345Z,45.77
2018-02-10T03:49:17.809Z,46.90
2018-02-10T03:51:45.320Z,46.97
2018-02-10T03:54:12.725Z,46.10
2018-02-10T03:56:40.153Z,43.07
2018-02-10T03:59:07.560Z,45.00
2018-02-10T04:01:34.973Z,46.87
2018-02-10T04:04:02.415Z,46.40
2018-02-10T04:06:29.829Z,45.33
2018-02-10T04:08:57.245Z,43.42
2018-02-10T04:11:24.661Z,42.10
2018-02-10T04:13:52.069Z,43.87
2018-02-10T04:16:19.497Z,44.00
2018-02-10T04:18:46.912Z,43.23
2018-02-10T04:21:14.332Z,41.77
2018-02-10T04:23:41.752Z,45.47
2018-02-10T04:26:09.193Z,44.87
2018-02-10T04:28:36.623Z,43.67
2018-02-10T04:31:04.082Z,39.70
2018-02-10T04:33:31.498Z,43.27
2018-02-10T04:35:58.940Z,39.72
2018-02-10T04:38:26.390Z,41.30
2018-02-10T04:40:54.281Z,42.85
2018-02-10T04:43:21.732Z,42.90
2018-02-10T04:45:49.187Z,41.22
2018-02-10T04:48:16.602Z,42.13
2018-02-10T04:50:44.016Z,43.00
2018-02-10T04:53:11.437Z,42.88
2018-02-10T04:55:38.954Z,39.80
2018-02-10T04:58:06.383Z,41.03
2018-02-10T05:00:33.790Z,43.90
2018-02-10T05:03:01.238Z,41.07
2018-02-10T05:05:28.653Z,43.45
2018-02-10T05:07:56.088Z,38.20
2018-02-10T05:10:23.491Z,40.17
2018-02-10T05:12:50.917Z,42.55
2018-02-10T05:15:18.338Z,42.63
2018-02-10T05:17:45.761Z,42.37
2018-02-10T05:20:13.168Z,39.80
2018-02-10T05:22:40.626Z,36.17
2018-02-10T05:25:07.998Z,41.90
2018-02-10T05:27:35.488Z,38.43
2018-02-10T05:30:02.951Z,39.80
2018-02-10T05:32:30.368Z,43.55
2018-02-10T05:34:57.789Z,44.73
2018-02-10T05:37:25.639Z,42.25
2018-02-10T05:39:53.051Z,40.40
2018-02-10T05:42:20.477Z,41.67
2018-02-10T05:44:47.978Z,38.50
2018-02-10T05:47:15.429Z,40.90
2018-02-10T05:49:42.890Z,38.58
2018-02-10T05:52:10.320Z,41.07
2018-02-10T05:54:37.727Z,41.13
2018-02-10T05:57:05.163Z,39.30
2018-02-10T05:59:32.553Z,42.67
2018-02-10T06:02:00.067Z,38.70
2018-02-10T06:04:27.488Z,37.73
2018-02-10T06:06:54.909Z,39.40
2018-02-10T06:09:22.373Z,41.80
2018-02-10T06:11:49.786Z,39.77
2018-02-10T06:14:17.222Z,42.67
2018-02-10T06:16:44.668Z,42.27
2018-02-10T06:19:12.088Z,41.67
2018-02-10T06:21:39.499Z,44.57
2018-02-10T06:24:06.938Z,43.37
2018-02-10T06:26:34.364Z,40.93
2018-02-10T06:29:01.777Z,41.20
2018-02-10T06:31:29.234Z,42.30
2018-02-10T06:33:57.258Z,40.65
2018-02-10T06:36:24.654Z,38.47
2018-02-10T06:38:52.073Z,38.27
2018-02-10T06:41:19.484Z,40.13
2018-02-10T06:43:46.957Z,42.63
2018-02-10T06:46:14.384Z,40.15
2018-02-10T06:48:41.839Z,41.30
2018-02-10T06:51:09.288Z,44.30
2018-02-10T06:53:36.702Z,46.42
2018-02-10T06:56:04.129Z,48.43
2018-02-10T06:58:31.549Z,43.60
2018-02-10T07:00:58.965Z,41.90
2018-02-10T07:03:26.384Z,39.37
2018-02-10T07:05:53.869Z,43.47
2018-02-10T07:08:21.297Z,45.50
2018-02-10T07:10:48.721Z,45.70
2018-02-10T07:13:16.155Z,46.10
2018-02-10T07:15:43.584Z,42.50
2018-02-10T07:18:11.015Z,46.43
2018-02-10T07:20:38.505Z,37.28
2018-02-10T07:23:05.927Z,40.77
2018-02-10T07:25:33.353Z,38.73
2018-02-10T07:28:00.761Z,33.23
2018-02-10T07:30:28.787Z,32.20
2018-02-10T07:32:56.201Z,29.00
2018-02-10T07:35:23.623Z,29.77
2018-02-10T07:37:51.034Z,28.80
2018-02-10T07:40:18.468Z,22.10
2018-02-10T07:42:45.909Z,25.60
2018-02-10T07:45:13.334Z,24.77
2018-02-10T07:47:40.748Z,25.70
2018-02-10T07:50:08.249Z,25.70
2018-02-10T07:52:35.664Z,23.70
2018-02-10T07:55:03.090Z,25.73
2018-02-10T07:57:30.506Z,22.13
2018-02-10T07:59:57.929Z,22.33
2018-02-10T08:02:25.357Z,12.37
2018-02-10T08:04:52.830Z,21.80
2018-02-10T08:07:20.249Z,20.57
2018-02-10T08:09:47.702Z,20.20
2018-02-10T08:12:15.073Z,21.40
2018-02-10T08:14:42.510Z,22.27
2018-02-10T08:17:09.912Z,21.10
2018-02-10T08:19:37.351Z,27.53
2018-02-10T08:22:04.777Z,27.60
2018-02-10T08:24:32.203Z,25.50
2018-02-10T08:27:00.556Z,23.85
2018-02-10T08:29:27.973Z,25.13
2018-02-10T08:31:55.428Z,24.53
2018-02-10T08:34:22.856Z,23.77
2018-02-10T08:36:50.291Z,28.27
2018-02-10T08:39:17.702Z,30.33
2018-02-10T08:41:45.125Z,31.07
2018-02-10T08:44:12.549Z,27.03
2018-02-10T08:46:40.004Z,30.40
2018-02-10T08:49:07.465Z,33.87
2018-02-10T08:51:34.965Z,29.10
2018-02-10T08:54:02.396Z,22.10
2018-02-10T08:56:29.811Z,23.73
2018-02-10T08:58:57.214Z,26.30
2018-02-10T09:01:24.638Z,21.60
2018-02-10T09:03:52.061Z,23.57
2018-02-10T09:06:19.468Z,20.27
2018-02-10T09:08:46.909Z,26.30
2018-02-10T09:11:14.332Z,19.60
2018-02-10T09:13:41.756Z,22.47
2018-02-10T09:16:09.209Z,24.77
2018-02-10T09:18:36.617Z,23.98
2018-02-10T09:21:04.052Z,25.83
2018-02-10T09:23:32.449Z,24.00
2018-02-10T09:25:59.861Z,22.17
2018-02-10T09:28:27.277Z,22.83
2018-02-10T09:30:54.688Z,24.37
2018-02-10T09:33:22.105Z,22.30
2018-02-10T09:35:49.506Z,21.07
2018-02-10T09:38:16.929Z,22.50
2018-02-10T09:40:44.357Z,22.70
2018-02-10T09:43:11.803Z,20.93
2018-02-10T09:45:39.217Z,19.17
2018-02-10T09:48:06.632Z,19.67
2018-02-10T09:50:34.049Z,23.60
2018-02-10T09:53:01.490Z,20.63
2018-02-10T09:55:28.907Z,19.47
2018-02-10T09:57:56.362Z,19.75
2018-02-10T10:00:23.778Z,19.83
2018-02-10T10:02:51.251Z,16.27
2018-02-10T10:05:18.644Z,16.33
2018-02-10T10:07:46.070Z,18.77
2018-02-10T10:10:13.473Z,18.30
2018-02-10T10:12:40.894Z,14.57
2018-02-10T10:15:08.312Z,14.50
2018-02-10T10:17:35.731Z,17.47
2018-02-10T10:20:03.145Z,15.30
2018-02-10T10:22:30.569Z,13.33
2018-02-10T10:24:57.985Z,16.13
2018-02-10T10:27:25.399Z,15.00
2018-02-10T10:29:52.874Z,16.50
2018-02-10T10:32:20.314Z,15.03
2018-02-10T10:34:47.762Z,15.13
2018-02-10T10:37:15.253Z,16.50
2018-02-10T10:39:42.657Z,14.20
2018-02-10T10:42:10.073Z,19.08
2018-02-10T10:44:37.493Z,17.27
2018-02-10T10:47:05.428Z,19.87
2018-02-10T10:49:32.881Z,21.40
2018-02-10T10:52:00.313Z,17.10
2018-02-10T10:54:27.768Z,17.13
2018-02-10T10:56:55.186Z,17.43
2018-02-10T10:59:22.632Z,16.60
2018-02-10T11:01:50.041Z,17.20
2018-02-10T11:04:17.462Z,18.17
2018-02-10T11:06:44.885Z,17.90
2018-02-10T11:09:12.326Z,17.90
2018-02-10T11:11:39.734Z,15.60
2018-02-10T11:14:07.153Z,17.40
2018-02-10T11:16:34.582Z,17.73
2018-02-10T11:19:01.997Z,17.77
2018-02-10T11:21:29.430Z,19.17
2018-02-10T11:23:56.881Z,17.67
2018-02-10T11:26:24.321Z,18.30
2018-02-10T11:28:51.761Z,20.23
2018-02-10T11:31:19.172Z,20.43
2018-02-10T11:33:46.590Z,19.00
2018-02-10T11:36:14.017Z,21.05
2018-02-10T11:38:41.541Z,19.97
2018-02-10T11:41:08.942Z,18.33
2018-02-10T11:43:36.370Z,18.60
2018-02-10T11:46:03.779Z,19.20
2018-02-10T11:48:31.216Z,20.13
2018-02-10T11:50:58.609Z,19.20
2018-02-10T11:53:26.037Z,20.47
2018-02-10T11:55:53.478Z,17.77
2018-02-10T11:58:20.935Z,17.55
2018-02-10T12:00:48.390Z,23.40
2018-02-10T12:03:15.800Z,18.83
2018-02-10T12:05:43.217Z,14.40
2018-02-10T12:08:10.630Z,16.93
2018-02-10T12:10:38.678Z,17.77
2018-02-10T12:13:06.088Z,17.50
2018-02-10T12:15:33.520Z,18.73
2018-02-10T12:18:00.984Z,14.43
2018-02-10T12:20:28.401Z,17.50
2018-02-10T12:22:55.825Z,17.10
2018-02-10T12:25:23.310Z,16.20
2018-02-10T12:27:50.772Z,16.07
2018-02-10T12:30:18.215Z,15.95
2018-02-10T12:32:45.656Z,18.37
2018-02-10T12:35:13.086Z,16.50
2018-02-10T12:37:40.538Z,20.07
2018-02-10T12:40:07.981Z,16.27
2018-02-10T12:42:35.493Z,14.43
2018-02-10T12:45:02.969Z,15.90
2018-02-10T12:47:36.046Z,15.73
2018-02-10T12:50:03.495Z,17.40
2018-02-10T12:52:30.906Z,17.57
2018-02-10T12:54:58.403Z,18.48
2018-02-10T12:57:25.906Z,20.13
2018-02-10T12:59:53.317Z,18.90
2018-02-10T13:02:20.725Z,17.90
2018-02-10T13:04:48.137Z,17.03
2018-02-10T13:07:15.572Z,17.25
2018-02-10T13:09:42.999Z,19.95
2018-02-10T13:12:11.294Z,21.90
2018-02-10T13:14:38.711Z,20.43
2018-02-10T13:17:06.125Z,19.27
2018-02-10T13:19:33.584Z,22.80
2018-02-10T13:22:01.000Z,24.77
2018-02-10T13:24:28.410Z,24.30
2018-02-10T13:26:55.848Z,24.13
2018-02-10T13:29:23.282Z,23.30
2018-02-10T13:31:50.721Z,24.50
2018-02-10T13:34:18.142Z,24.10
2018-02-10T13:36:45.567Z,23.00
2018-02-10T13:39:12.986Z,27.87
2018-02-10T13:41:40.401Z,23.75
2018-02-10T13:44:07.819Z,24.20
2018-02-10T13:46:35.282Z,24.20
2018-02-10T13:49:02.746Z,23.83
2018-02-10T13:51:30.199Z,20.60
2018-02-10T13:53:57.607Z,24.00
2018-02-10T13:56:25.033Z,22.20
2018-02-10T13:58:52.455Z,21.60
2018-02-10T14:01:19.878Z,21.43
2018-02-10T14:03:47.290Z,19.03
2018-02-10T14:06:14.720Z,21.37
2018-02-10T14:08:42.217Z,20.47
2018-02-10T14:11:09.637Z,18.85
2018-02-10T14:13:37.102Z,17.70
2018-02-10T14:16:04.509Z,17.03
2018-02-10T14:18:31.937Z,17.00
2018-02-10T14:20:59.365Z,18.97
2018-02-10T14:23:26.837Z,19.40
2018-02-10T14:25:54.252Z,17.00
2018-02-10T14:28:21.669Z,18.40
2018-02-10T14:30:49.095Z,15.00
2018-02-10T14:33:16.515Z,18.37
2018-02-10T14:35:44.915Z,18.20
2018-02-10T14:38:12.337Z,22.43
2018-02-10T14:40:39.745Z,18.03
2018-02-10T14:43:07.186Z,18.50
2018-02-10T14:45:34.601Z,17.27
2018-02-10T14:48:02.034Z,15.77
2018-02-10T14:50:29.454Z,14.80
2018-02-10T14:52:56.881Z,17.53
2018-02-10T14:55:24.303Z,14.07
2018-02-10T14:57:51.728Z,19.83
2018-02-10T15:00:19.197Z,14.97
2018-02-10T15:02:46.627Z,15.60
2018-02-10T15:05:14.087Z,15.00
2018-02-10T15:07:41.591Z,18.33
2018-02-10T15:10:09.036Z,16.30
2018-02-10T15:12:36.566Z,15.40
2018-02-10T15:15:03.986Z,14.97
2018-02-10T15:17:31.490Z,17.00
2018-02-10T15:19:59.029Z,14.60
2018-02-10T15:22:26.445Z,14.80
2018-02-10T15:24:53.882Z,14.37
2018-02-10T15:27:21.334Z,16.00
2018-02-10T15:30:00.701Z,15.37
2018-02-10T15:32:40.065Z,13.02
2018-02-10T15:35:07.518Z,14.57
2018-02-10T15:37:34.935Z,13.83
2018-02-10T15:40:02.351Z,14.43
2018-02-10T15:42:29.753Z,16.90
2018-02-10T15:44:57.239Z,14.90
2018-02-10T15:47:24.663Z,13.97
2018-02-10T15:49:52.093Z,14.77
2018-02-10T15:52:19.567Z,14.97
2018-02-10T15:54:47.067Z,18.87
2018-02-10T15:57:14.486Z,13.90
2018-02-10T15:59:41.913Z,21.37
2018-02-10T16:02:09.324Z,12.27
2018-02-10T16:04:36.741Z,15.40
2018-02-10T16:07:04.205Z,11.77
2018-02-10T16:09:31.683Z,15.57
2018-02-10T16:11:59.129Z,14.37
2018-02-10T16:14:26.545Z,13.70
2018-02-10T16:16:53.962Z,13.03
2018-02-10T16:19:21.371Z,14.50
2018-02-10T16:21:49.616Z,14.30
2018-02-10T16:24:17.074Z,14.47
2018-02-10T16:26:44.510Z,13.40
2018-02-10T16:29:11.934Z,12.67
2018-02-10T16:31:39.341Z,12.80
2018-02-10T16:34:06.769Z,15.37
2018-02-10T16:36:34.185Z,13.45
2018-02-10T16:39:01.624Z,12.07
2018-02-10T16:41:29.026Z,13.03
2018-02-10T16:43:56.470Z,13.90
2018-02-10T16:46:23.890Z,13.67
2018-02-10T16:48:51.296Z,12.03
2018-02-10T16:51:18.730Z,11.85
2018-02-10T16:53:46.139Z,13.40
2018-02-10T16:56:13.633Z,13.60
2018-02-10T16:58:41.036Z,11.80
2018-02-10T17:01:08.465Z,13.70
2018-02-10T17:03:35.877Z,16.80
2018-02-10T17:06:03.307Z,13.93
2018-02-10T17:08:30.725Z,13.82
2018-02-10T17:10:58.141Z,32.13
2018-02-10T17:13:25.581Z,21.93
2018-02-10T17:15:53.025Z,13.68
2018-02-10T17:18:20.434Z,18.97
2018-02-10T17:20:47.870Z,14.40
2018-02-10T17:23:15.285Z,13.70
2018-02-10T17:25:42.744Z,12.93
2018-02-10T17:28:10.240Z,10.90
2018-02-10T17:30:37.657Z,10.80
2018-02-10T17:33:05.056Z,14.07
2018-02-10T17:35:32.521Z,12.67
2018-02-10T17:37:59.941Z,12.90
2018-02-10T17:40:27.379Z,10.97
2018-02-10T17:42:54.878Z,12.82
2018-02-10T17:45:23.108Z,14.50
2018-02-10T17:47:50.542Z,14.23
2018-02-10T17:50:17.943Z,14.07
2018-02-10T17:52:45.364Z,14.00
2018-02-10T17:55:12.863Z,13.03
2018-02-10T17:57:40.309Z,15.15
2018-02-10T18:00:07.718Z,16.07
2018-02-10T18:02:35.133Z,17.47
2018-02-10T18:05:02.544Z,14.90
2018-02-10T18:07:29.966Z,18.20
2018-02-10T18:09:57.378Z,19.67
2018-02-10T18:12:24.846Z,11.40
2018-02-10T18:14:52.244Z,12.33
2018-02-10T18:17:19.758Z,12.90
2018-02-10T18:19:47.168Z,14.47
2018-02-10T18:22:14.590Z,13.00
2018-02-10T18:24:42.005Z,13.10
2018-02-10T18:27:09.432Z,14.37
2018-02-10T18:29:36.936Z,14.20
2018-02-10T18:32:04.371Z,11.97
2018-02-10T18:34:31.816Z,12.70
2018-02-10T18:36:59.225Z,11.97
2018-02-10T18:39:26.651Z,11.03
2018-02-10T18:41:54.377Z,13.52
2018-02-10T18:44:21.875Z,11.50
2018-02-10T18:46:49.326Z,12.35
2018-02-10T18:49:16.752Z,12.00
2018-02-10T18:51:44.170Z,12.80
2018-02-10T18:54:11.577Z,15.27
2018-02-10T18:56:39.009Z,14.10
2018-02-10T18:59:06.416Z,16.03
2018-02-10T19:01:33.847Z,15.23
2018-02-10T19:04:01.369Z,14.87
2018-02-10T19:06:28.786Z,14.73
2018-02-10T19:08:56.235Z,13.10
2018-02-10T19:11:23.680Z,16.63
2018-02-10T19:13:51.109Z,11.63
2018-02-10T19:16:18.521Z,12.47
2018-02-10T19:18:45.945Z,11.83
2018-02-10T19:21:13.361Z,12.90
2018-02-10T19:23:40.782Z,10.27
2018-02-10T19:26:08.300Z,11.50
2018-02-10T19:28:35.711Z,11.50
2018-02-10T19:31:03.146Z,13.30
2018-02-10T19:33:30.574Z,12.68
2018-02-10T19:35:57.971Z,12.23
2018-02-10T19:38:25.834Z,10.82
2018-02-10T19:40:53.256Z,11.40
2018-02-10T19:43:20.684Z,12.53
2018-02-10T19:45:48.129Z,10.33
2018-02-10T19:48:15.572Z,12.10
2018-02-10T19:50:42.983Z,12.15
2018-02-10T19:53:10.393Z,10.53
2018-02-10T19:55:37.812Z,10.90
2018-02-10T19:58:05.232Z,10.73
2018-02-10T20:00:32.644Z,10.57
2018-02-10T20:03:00.086Z,11.30
2018-02-10T20:05:27.497Z,10.50
2018-02-10T20:07:54.959Z,11.40
2018-02-10T20:10:22.429Z,11.37
2018-02-10T20:12:49.848Z,13.23
2018-02-10T20:15:17.259Z,11.67
2018-02-10T20:17:44.678Z,11.57
2018-02-10T20:20:12.092Z,9.57
2018-02-10T20:37:05.302Z,12.73
2018-02-10T20:56:35.374Z,10.95
2018-02-10T21:16:05.413Z,10.35
2018-02-10T21:18:33.818Z,10.35
2018-02-10T21:21:01.230Z,9.57
2018-02-10T21:23:28.722Z,10.37
2018-02-10T21:25:56.142Z,8.80
2018-02-10T21:28:23.571Z,9.77
2018-02-10T21:30:51.002Z,10.30
2018-02-10T21:33:18.405Z,10.50
2018-02-10T21:35:45.820Z,11.32
2018-02-10T21:38:13.249Z,11.07
2018-02-10T21:40:40.683Z,12.50
2018-02-10T21:43:08.101Z,10.77
2018-02-10T21:45:35.510Z,9.20
2018-02-10T21:48:02.925Z,9.20
2018-02-10T21:50:30.337Z,9.63
2018-02-10T21:52:57.753Z,11.13
2018-02-10T21:55:25.223Z,10.10
2018-02-10T21:57:52.662Z,8.95
2018-02-10T22:02:41.130Z,12.68
2018-02-10T22:05:08.541Z,12.10
2018-02-10T22:07:35.960Z,13.73
2018-02-10T22:10:03.392Z,13.57
2018-02-10T22:12:30.807Z,13.00
2018-02-10T22:14:58.218Z,12.90
2018-02-10T22:17:25.633Z,13.40
2018-02-10T22:19:53.049Z,13.43
2018-02-10T22:22:20.474Z,12.03
2018-02-10T22:24:47.882Z,13.00
2018-02-10T22:27:15.307Z,13.97
2018-02-10T22:29:42.784Z,14.87
2018-02-10T22:32:10.208Z,13.93
2018-02-10T22:34:37.659Z,11.80
2018-02-10T22:37:05.114Z,11.10
2018-02-10T22:39:32.521Z,11.50
2018-02-10T22:41:59.933Z,10.95
2018-02-10T22:44:27.358Z,10.80
2018-02-10T22:46:54.787Z,10.00
2018-02-10T22:49:22.205Z,11.77
2018-02-10T22:51:49.625Z,10.40
2018-02-10T22:54:17.017Z,9.30
2018-02-10T22:56:44.442Z,8.18
2018-02-10T22:59:11.930Z,7.40
2018-02-10T23:01:39.298Z,8.20
2018-02-10T23:04:06.707Z,8.68
2018-02-10T23:06:34.117Z,8.23
2018-02-10T23:09:01.992Z,8.88
2018-02-10T23:11:29.431Z,7.97
2018-02-10T23:13:56.838Z,8.87
2018-02-10T23:16:24.253Z,7.93
2018-02-10T23:18:51.678Z,8.73
2018-02-10T23:21:19.078Z,9.23
2018-02-10T23:23:46.525Z,9.70
2018-02-10T23:26:13.933Z,8.33
2018-02-10T23:28:41.346Z,8.63
2018-02-10T23:31:08.764Z,9.00
2018-02-10T23:33:36.228Z,8.33
2018-02-10T23:36:03.637Z,8.30
2018-02-10T23:38:31.048Z,9.20
2018-02-10T23:40:58.485Z,9.30
2018-02-10T23:43:25.933Z,8.70
2018-02-10T23:45:53.348Z,9.23
2018-02-10T23:48:20.765Z,9.87
2018-02-10T23:50:48.161Z,9.27
2018-02-10T23:53:15.586Z,8.30
2018-02-10T23:55:42.984Z,9.43
2018-02-10T23:58:10.415Z,8.10
